Aérodrome :
LOGIN :

S'inscrire | Disclaimer

   EN    FR    IT 

 










Légende :    VFR   VFR Marginal   IFR   IFR Intensif   IFR Très Intensif
Visi : 
Plafond : 
>= 8 km
>= 3000ft
5 à 8 km
1000 à 3000 ft
1500m à 5 km
500 à 1000 ft
800 à 1500m
200 à 500 ft
< 800m
< 200 ft
Symboles :   Orages  Brouillard  Fortes neiges  Fortes précipitations  Vent > 20 kt
SIGMETs :   Divers  Orages  Givrage  Turbulence  Onde Orograph.  Cendres Volcan.






- Altitude de l'aérodrome : 348 ft
- Code IATA : TSR


LRTR - Timisoara

DERNIER METAR :
  • 151430Z 25005KT 8000 -SN BKN011 SCT028 00/00 Q1015 R11/19//95

METARs EXPIRÉS :
  • 151400Z 26005KT 7000 -SN BKN013 SCT023 00/00 Q1015 R11/19//95
  • 151330Z 23005KT 9999 -SN BKN012 SCT023 00/M00 Q1015 R11/19//95
  • 151300Z 23006KT 9999 -SN BKN013 00/M00 Q1015 R11/19//95
  • 151230Z 21004KT 9999 BKN015 00/M00 Q1015 R11/19//95
  • 151200Z 25005KT 9999 BKN012 M00/M01 Q1016 R11/19//95

TAF TAF LRTR
Valide du 15 à 12h jusqu'au 16 à 12h UTC


151100Z 1512/1612 25007KT 9999 SCT015
BECMG 1513/1514 5000 -SN BR BKN015 BKN030
TEMPO 1514/1520 1500 -SN BR
BECMG 1519/1521 36010KT
BECMG 1520/1522 9999 NSW SCT045
PROB30
TEMPO 1608/1611 5000 -SN



MET'MAP, la Météo Aéronautique d'un coup d'oeil ! - Copyright ORBIFLY Décembre 2007 - Disclaimer

ORBIFLY MET'MAP TEAM :

Programmation & Développement : Alexandra Zaïnal
Sur une idée originale de : Baudouin d'Aumeries
Assistance à la programmation : Marc-Olivier Méhu
Soutien technique & logistique : Manuel Goepfert

Contact : metmap@orbifly.com




SOURCES & CREDITS :

   NOAA